createdAt,value
2018-11-27T00:00:23.469Z,99.99
2018-11-27T00:01:23.424Z,99.99
2018-11-27T00:02:23.375Z,99.99
2018-11-27T00:03:23.353Z,99.99
2018-11-27T00:04:23.285Z,99.99
2018-11-27T00:05:23.253Z,99.99
2018-11-27T00:06:23.204Z,99.99
2018-11-27T00:07:23.157Z,99.99
2018-11-27T00:08:23.137Z,99.99
2018-11-27T00:09:23.061Z,99.99
2018-11-27T00:10:23.017Z,99.99
2018-11-27T00:11:22.971Z,99.99
2018-11-27T00:12:22.927Z,99.99
2018-11-27T00:13:22.915Z,99.99
2018-11-27T00:14:22.865Z,99.99
2018-11-27T00:15:22.793Z,99.99
2018-11-27T00:16:22.755Z,99.99
2018-11-27T00:17:22.710Z,99.99
2018-11-27T00:18:22.673Z,99.99
2018-11-27T00:19:22.643Z,99.99
2018-11-27T00:20:22.580Z,99.99
2018-11-27T00:21:22.524Z,99.99
2018-11-27T00:22:22.479Z,99.99
2018-11-27T00:23:22.435Z,99.99
2018-11-27T00:24:22.412Z,99.99
2018-11-27T00:25:22.378Z,99.99
2018-11-27T00:26:22.310Z,99.99
2018-11-27T00:27:22.262Z,99.99
2018-11-27T00:28:22.225Z,99.99
2018-11-27T00:29:22.195Z,99.99
2018-11-27T00:30:22.123Z,99.99
2018-11-27T00:31:22.085Z,99.99
2018-11-27T00:32:22.039Z,99.99
2018-11-27T00:33:21.990Z,99.99
2018-11-27T00:34:21.967Z,99.99
2018-11-27T00:35:21.897Z,99.99
2018-11-27T00:36:21.857Z,99.99
2018-11-27T00:37:21.813Z,99.99
2018-11-27T00:38:21.773Z,99.99
2018-11-27T00:39:21.729Z,99.99
2018-11-27T00:40:21.704Z,99.99
2018-11-27T00:41:21.630Z,99.99
2018-11-27T00:42:21.590Z,99.99
2018-11-27T00:43:21.538Z,99.99
2018-11-27T00:44:21.496Z,99.99
2018-11-27T00:45:21.483Z,99.99
2018-11-27T00:46:21.414Z,99.99
2018-11-27T00:47:21.363Z,99.99
2018-11-27T00:48:21.318Z,99.99
2018-11-27T00:49:21.305Z,99.99
2018-11-27T00:50:21.240Z,99.99
2018-11-27T00:51:21.191Z,99.99
2018-11-27T00:52:21.145Z,99.99
2018-11-27T00:53:21.096Z,99.99
2018-11-27T00:54:21.075Z,99.99
2018-11-27T00:55:21.055Z,99.99
2018-11-27T00:56:20.986Z,99.99
2018-11-27T00:57:20.923Z,99.99
2018-11-27T00:58:20.877Z,99.99
2018-11-27T00:59:20.833Z,99.99
2018-11-27T01:00:20.820Z,99.99
2018-11-27T01:01:20.760Z,99.99
2018-11-27T01:02:20.694Z,99.99
2018-11-27T01:03:20.655Z,99.99
2018-11-27T01:04:20.608Z,99.99
2018-11-27T01:05:20.559Z,99.99
2018-11-27T01:06:20.542Z,99.99
2018-11-27T01:07:20.467Z,99.99
2018-11-27T01:08:20.427Z,99.99
2018-11-27T01:09:20.387Z,99.99
2018-11-27T01:10:20.343Z,99.99
2018-11-27T01:11:20.299Z,99.99
2018-11-27T01:12:20.276Z,99.99
2018-11-27T01:13:20.199Z,99.99
2018-11-27T01:14:20.159Z,99.99
2018-11-27T01:15:20.110Z,99.99
2018-11-27T01:16:20.065Z,99.99
2018-11-27T01:17:20.054Z,99.99
2018-11-27T01:18:19.983Z,99.99
2018-11-27T01:19:19.937Z,99.99
2018-11-27T01:20:19.886Z,99.99
2018-11-27T01:21:19.850Z,99.99
2018-11-27T01:22:19.809Z,99.99
2018-11-27T01:23:19.783Z,99.99
2018-11-27T01:24:19.715Z,99.99
2018-11-27T01:25:19.664Z,99.99
2018-11-27T01:26:19.621Z,99.99
2018-11-27T01:27:19.600Z,99.99
2018-11-27T01:28:19.530Z,99.99
2018-11-27T01:29:19.495Z,99.99
2018-11-27T01:30:19.453Z,99.99
2018-11-27T01:31:19.405Z,99.99
2018-11-27T01:32:19.358Z,99.99
2018-11-27T01:33:19.329Z,99.99
2018-11-27T01:34:19.266Z,99.99
2018-11-27T01:35:19.226Z,99.99
2018-11-27T01:36:19.198Z,99.99
2018-11-27T01:37:19.126Z,99.99
2018-11-27T01:38:19.082Z,99.99
2018-11-27T01:39:19.037Z,99.99
2018-11-27T01:40:18.996Z,99.99
2018-11-27T01:41:18.990Z,99.99
2018-11-27T01:42:18.910Z,99.99
2018-11-27T01:43:18.887Z,99.99
2018-11-27T01:44:18.821Z,99.99
2018-11-27T01:45:18.770Z,99.99
2018-11-27T01:46:18.754Z,99.99
2018-11-27T01:47:18.679Z,99.99
2018-11-27T01:48:18.636Z,99.99
2018-11-27T01:49:18.595Z,99.99
2018-11-27T01:50:18.559Z,99.99
2018-11-27T01:51:18.502Z,99.99
2018-11-27T01:52:18.479Z,99.99
2018-11-27T01:53:18.422Z,99.99
2018-11-27T01:54:18.381Z,99.99
2018-11-27T01:55:18.329Z,99.99
2018-11-27T01:56:18.286Z,99.99
2018-11-27T01:57:18.254Z,99.99
2018-11-27T01:58:18.188Z,99.99
2018-11-27T01:59:18.143Z,99.99
2018-11-27T02:00:18.095Z,99.99
2018-11-27T02:01:18.060Z,99.99
2018-11-27T02:02:18.043Z,99.99
2018-11-27T02:03:17.969Z,99.99
2018-11-27T02:04:17.924Z,99.99
2018-11-27T02:05:17.871Z,99.99
2018-11-27T02:06:17.828Z,99.99
2018-11-27T02:07:17.786Z,99.99
2018-11-27T02:08:17.767Z,99.99
2018-11-27T02:09:17.695Z,99.99
2018-11-27T02:10:17.673Z,99.99
2018-11-27T02:11:17.608Z,99.99
2018-11-27T02:12:17.559Z,99.99
2018-11-27T02:13:17.560Z,99.99
2018-11-27T02:14:17.484Z,99.99
2018-11-27T02:15:17.431Z,99.99
2018-11-27T02:16:17.386Z,99.99
2018-11-27T02:17:17.332Z,99.99
2018-11-27T02:18:17.313Z,99.99
2018-11-27T02:19:17.244Z,99.99
2018-11-27T02:20:17.198Z,99.99
2018-11-27T02:21:17.186Z,99.99
2018-11-27T02:22:17.118Z,99.99
2018-11-27T02:23:17.066Z,99.99
2018-11-27T02:24:17.020Z,99.99
2018-11-27T02:25:16.991Z,99.99
2018-11-27T02:26:16.963Z,99.99
2018-11-27T02:27:16.892Z,99.99
2018-11-27T02:28:16.844Z,99.99
2018-11-27T02:29:16.803Z,99.99
2018-11-27T02:30:16.752Z,99.99
2018-11-27T02:31:16.726Z,99.99
2018-11-27T02:32:16.671Z,99.99
2018-11-27T02:33:16.643Z,99.99
2018-11-27T02:34:16.576Z,99.99
2018-11-27T02:35:16.537Z,99.99
2018-11-27T02:36:16.487Z,99.99
2018-11-27T02:37:16.434Z,99.99
2018-11-27T02:38:16.410Z,99.99
2018-11-27T02:39:16.350Z,99.99
2018-11-27T02:40:16.306Z,99.99
2018-11-27T02:41:16.255Z,99.99
2018-11-27T02:42:16.207Z,99.99
2018-11-27T02:43:16.188Z,99.99
2018-11-27T02:44:16.118Z,99.99
2018-11-27T02:45:16.083Z,99.99
2018-11-27T02:46:16.040Z,99.99
2018-11-27T02:47:16.014Z,99.99
2018-11-27T02:48:15.943Z,99.99
2018-11-27T02:49:15.889Z,99.99
2018-11-27T02:50:15.847Z,99.99
2018-11-27T02:51:15.798Z,99.99
2018-11-27T02:52:15.781Z,99.99
2018-11-27T02:53:15.720Z,99.99
2018-11-27T02:54:15.676Z,99.99
2018-11-27T02:55:15.617Z,99.99
2018-11-27T02:56:15.573Z,99.99
2018-11-27T02:57:15.539Z,99.99
2018-11-27T02:58:15.517Z,99.99
2018-11-27T02:59:15.445Z,99.99
2018-11-27T03:00:15.459Z,99.99
2018-11-27T03:01:15.354Z,99.99
2018-11-27T03:02:15.305Z,99.99
2018-11-27T03:03:15.289Z,99.99
2018-11-27T03:04:15.214Z,99.99
2018-11-27T03:05:15.174Z,99.99
2018-11-27T03:06:15.155Z,99.99
2018-11-27T03:07:15.086Z,99.99
2018-11-27T03:08:15.038Z,99.99
2018-11-27T03:09:14.993Z,99.99
2018-11-27T03:10:14.942Z,99.99
2018-11-27T03:11:14.902Z,99.99
2018-11-27T03:12:14.882Z,99.99
2018-11-27T03:13:14.812Z,99.99
2018-11-27T03:14:14.791Z,99.99
2018-11-27T03:15:14.714Z,99.99
2018-11-27T03:16:14.675Z,99.99
2018-11-27T03:17:14.628Z,99.99
2018-11-27T03:18:14.586Z,99.99
2018-11-27T03:19:14.541Z,99.99
2018-11-27T03:20:14.516Z,99.99
2018-11-27T03:21:14.448Z,99.99
2018-11-27T03:22:14.397Z,99.99
2018-11-27T03:23:14.351Z,99.99
2018-11-27T03:24:14.305Z,99.99
2018-11-27T03:25:23.157Z,99.99
2018-11-27T03:26:14.236Z,99.99
2018-11-27T03:27:14.196Z,99.99
2018-11-27T03:28:14.605Z,99.99
2018-11-27T03:29:14.087Z,99.99
2018-11-27T03:30:14.076Z,99.99
2018-11-27T03:31:14.020Z,99.99
2018-11-27T03:32:13.974Z,99.99
2018-11-27T03:33:13.917Z,99.99
2018-11-27T03:34:13.869Z,99.99
2018-11-27T03:35:13.846Z,99.99
2018-11-27T03:36:13.766Z,99.99
2018-11-27T03:37:13.722Z,99.99
2018-11-27T03:38:13.699Z,99.99
2018-11-27T03:39:13.645Z,99.99
2018-11-27T03:40:13.611Z,99.99
2018-11-27T03:41:13.578Z,99.99
2018-11-27T03:42:13.509Z,99.99
2018-11-27T03:43:13.472Z,99.99
2018-11-27T03:44:13.413Z,99.99
2018-11-27T03:45:13.384Z,99.99
2018-11-27T03:46:13.316Z,99.99
2018-11-27T03:47:13.272Z,99.99
2018-11-27T03:48:13.217Z,99.99
2018-11-27T03:49:13.176Z,99.99
2018-11-27T03:50:13.161Z,99.99
2018-11-27T03:51:13.111Z,99.99
2018-11-27T03:52:13.043Z,99.99
2018-11-27T03:53:13.027Z,99.99
2018-11-27T03:54:12.975Z,99.99
2018-11-27T03:55:12.908Z,99.99
2018-11-27T03:56:12.895Z,99.99
2018-11-27T03:57:12.816Z,99.99
2018-11-27T03:58:12.789Z,99.99
2018-11-27T03:59:12.734Z,99.99
2018-11-27T04:00:12.686Z,99.99
2018-11-27T04:01:12.673Z,99.99
2018-11-27T04:02:12.596Z,99.99
2018-11-27T04:03:12.559Z,99.99
2018-11-27T04:04:12.531Z,99.99
2018-11-27T04:05:12.453Z,99.99
2018-11-27T04:06:12.420Z,99.99
2018-11-27T04:07:12.363Z,99.99
2018-11-27T04:08:12.353Z,99.99
2018-11-27T04:09:12.275Z,99.99
2018-11-27T04:10:12.245Z,99.99
2018-11-27T04:11:12.162Z,99.99
2018-11-27T04:12:12.126Z,99.99
2018-11-27T04:13:12.110Z,99.99
2018-11-27T04:14:12.055Z,99.99
2018-11-27T04:15:11.986Z,99.99
2018-11-27T04:16:11.991Z,99.99
2018-11-27T04:17:11.928Z,99.99
2018-11-27T04:18:11.850Z,99.99
2018-11-27T04:19:11.809Z,99.99
2018-11-27T04:20:11.767Z,99.99
2018-11-27T04:21:11.725Z,99.99
2018-11-27T04:22:11.673Z,99.99
2018-11-27T04:23:11.638Z,99.99
2018-11-27T04:24:11.576Z,99.99
2018-11-27T04:25:11.537Z,99.99
2018-11-27T04:26:11.487Z,99.99
2018-11-27T04:27:11.451Z,99.99
2018-11-27T04:28:11.418Z,99.99
2018-11-27T04:29:11.338Z,99.99
2018-11-27T04:30:11.291Z,99.99
2018-11-27T04:31:11.248Z,99.99
2018-11-27T04:32:11.222Z,99.99
2018-11-27T04:33:11.181Z,99.99
2018-11-27T04:34:11.142Z,99.99
2018-11-27T04:35:11.101Z,99.99
2018-11-27T04:36:11.017Z,99.99
2018-11-27T04:37:10.965Z,99.99
2018-11-27T04:38:10.926Z,99.99
2018-11-27T04:39:10.883Z,99.99
2018-11-27T04:40:10.862Z,99.99
2018-11-27T04:41:10.805Z,99.99
2018-11-27T04:42:10.748Z,99.99
2018-11-27T04:43:10.707Z,99.99
2018-11-27T04:44:10.641Z,99.99
2018-11-27T04:45:10.653Z,99.99
2018-11-27T04:46:10.572Z,99.99
2018-11-27T04:47:10.523Z,99.99
2018-11-27T04:48:10.464Z,99.99
2018-11-27T04:49:10.474Z,99.99
2018-11-27T04:50:10.379Z,99.99
2018-11-27T04:51:10.334Z,99.99
2018-11-27T04:52:10.293Z,99.99
2018-11-27T04:53:10.250Z,99.99
2018-11-27T04:54:10.215Z,99.99
2018-11-27T04:55:10.183Z,99.99
2018-11-27T04:56:10.119Z,99.99
2018-11-27T04:57:10.067Z,99.99
2018-11-27T04:58:10.035Z,99.99
2018-11-27T04:59:09.975Z,99.99
2018-11-27T05:00:09.935Z,99.99
2018-11-27T05:01:09.907Z,99.99
2018-11-27T05:02:09.872Z,99.99
2018-11-27T05:03:09.824Z,99.99
2018-11-27T05:04:09.752Z,99.99
2018-11-27T05:05:09.695Z,99.99
2018-11-27T05:06:09.665Z,99.99
2018-11-27T05:07:09.649Z,99.99
2018-11-27T05:08:09.572Z,99.99
2018-11-27T05:09:09.515Z,99.99
2018-11-27T05:10:09.467Z,99.99
2018-11-27T05:11:09.436Z,99.99
2018-11-27T05:12:09.393Z,99.99
2018-11-27T05:13:09.360Z,99.99
2018-11-27T05:14:09.289Z,99.99
2018-11-27T05:15:09.238Z,99.99
2018-11-27T05:16:09.238Z,99.99
2018-11-27T05:17:09.143Z,99.99
2018-11-27T05:18:09.110Z,99.99
2018-11-27T05:19:09.057Z,99.99
2018-11-27T05:20:09.030Z,99.99
2018-11-27T05:21:08.990Z,99.99
2018-11-27T05:22:08.938Z,99.99
2018-11-27T05:23:08.891Z,99.99
2018-11-27T05:24:08.875Z,99.99
2018-11-27T05:25:08.789Z,99.99
2018-11-27T05:26:08.777Z,99.99
2018-11-27T05:27:08.716Z,99.99
2018-11-27T05:28:08.651Z,99.99
2018-11-27T05:29:08.605Z,99.99
2018-11-27T05:30:08.581Z,99.99
2018-11-27T05:31:08.511Z,99.99
2018-11-27T05:32:08.481Z,99.99
2018-11-27T05:33:08.417Z,99.99
2018-11-27T05:34:08.369Z,99.99
2018-11-27T05:35:08.365Z,99.99
2018-11-27T05:36:08.283Z,99.99
2018-11-27T05:37:08.273Z,99.99
2018-11-27T05:38:08.196Z,99.99
2018-11-27T05:39:08.151Z,99.99
2018-11-27T05:40:08.103Z,99.99
2018-11-27T05:41:08.086Z,99.99
2018-11-27T05:42:08.032Z,99.99
2018-11-27T05:43:07.978Z,99.99
2018-11-27T05:44:07.934Z,99.99
2018-11-27T05:45:07.900Z,99.99
2018-11-27T05:46:07.871Z,99.99
2018-11-27T05:47:07.812Z,99.99
2018-11-27T05:48:07.732Z,99.99
2018-11-27T05:49:07.701Z,99.99
2018-11-27T05:50:07.681Z,99.99
2018-11-27T05:51:07.599Z,99.99
2018-11-27T05:52:07.596Z,99.99
2018-11-27T05:53:07.537Z,99.99
2018-11-27T05:54:07.521Z,99.99
2018-11-27T05:55:07.451Z,99.99
2018-11-27T05:56:07.403Z,99.99
2018-11-27T05:57:07.332Z,99.99
2018-11-27T05:58:07.294Z,99.99
2018-11-27T05:59:07.227Z,99.99
2018-11-27T06:00:07.193Z,99.99
2018-11-27T06:01:07.169Z,99.99
2018-11-27T06:02:07.093Z,99.99
2018-11-27T06:03:07.052Z,99.99
2018-11-27T06:04:07.026Z,99.99
2018-11-27T06:05:06.965Z,99.99
2018-11-27T06:06:06.959Z,99.99
2018-11-27T06:07:06.871Z,99.99
2018-11-27T06:08:06.833Z,99.99
2018-11-27T06:09:06.785Z,99.99
2018-11-27T06:10:06.743Z,99.99
2018-11-27T06:11:06.690Z,99.99
2018-11-27T06:12:06.672Z,99.99
2018-11-27T06:13:15.666Z,99.99
2018-11-27T06:14:06.557Z,99.99
2018-11-27T06:15:06.509Z,99.99
2018-11-27T06:16:06.469Z,99.99
2018-11-27T06:17:06.413Z,99.99
2018-11-27T06:18:06.387Z,99.99
2018-11-27T06:19:06.327Z,99.99
2018-11-27T06:20:06.282Z,99.99
2018-11-27T06:21:06.229Z,99.99
2018-11-27T06:22:06.190Z,99.99
2018-11-27T06:23:06.158Z,99.99
2018-11-27T06:24:06.098Z,99.99
2018-11-27T06:25:06.056Z,99.99
2018-11-27T06:26:06.016Z,99.99
2018-11-27T06:27:05.967Z,99.99
2018-11-27T06:28:05.943Z,99.99
2018-11-27T06:29:05.867Z,99.99
2018-11-27T06:30:05.825Z,99.99
2018-11-27T06:31:05.778Z,99.99
2018-11-27T06:32:05.754Z,99.99
2018-11-27T06:33:05.718Z,99.99
2018-11-27T06:34:05.652Z,99.99
2018-11-27T06:35:05.605Z,99.99
2018-11-27T06:36:05.562Z,99.99
2018-11-27T06:37:05.511Z,99.99
2018-11-27T06:38:05.499Z,99.99
2018-11-27T06:39:05.428Z,99.99
2018-11-27T06:40:05.380Z,99.99
2018-11-27T06:41:05.330Z,99.99
2018-11-27T06:42:05.289Z,99.99
2018-11-27T06:43:05.241Z,99.99
2018-11-27T06:44:05.219Z,99.99
2018-11-27T06:45:05.157Z,99.99
2018-11-27T06:46:05.119Z,99.99
2018-11-27T06:47:05.063Z,99.99
2018-11-27T06:48:05.047Z,99.99
2018-11-27T06:49:04.963Z,99.99
2018-11-27T06:50:04.927Z,99.99
2018-11-27T06:51:04.882Z,99.99
2018-11-27T06:52:04.844Z,99.99
2018-11-27T06:53:04.789Z,99.99
2018-11-27T06:54:04.768Z,99.99
2018-11-27T06:55:04.701Z,99.99
2018-11-27T06:56:04.657Z,99.99
2018-11-27T06:57:04.620Z,99.99
2018-11-27T06:58:04.597Z,99.99
2018-11-27T06:59:04.526Z,99.99
2018-11-27T07:00:04.487Z,99.99
2018-11-27T07:01:04.428Z,99.99
2018-11-27T07:02:04.394Z,99.99
2018-11-27T07:03:04.363Z,99.99
2018-11-27T07:04:04.295Z,99.99
2018-11-27T07:05:04.268Z,99.99
2018-11-27T07:06:04.271Z,99.99
2018-11-27T07:07:04.168Z,99.99
2018-11-27T07:08:04.138Z,99.99
2018-11-27T07:09:04.106Z,99.99
2018-11-27T07:10:04.054Z,99.99
2018-11-27T07:11:04.009Z,99.99
2018-11-27T07:12:03.973Z,99.99
2018-11-27T07:13:03.933Z,99.99
2018-11-27T07:14:03.854Z,99.99
2018-11-27T07:15:03.845Z,99.99
2018-11-27T07:16:03.792Z,99.99
2018-11-27T07:17:03.751Z,99.99
2018-11-27T07:18:03.703Z,99.99
2018-11-27T07:19:03.649Z,99.99
2018-11-27T07:20:03.633Z,99.99
2018-11-27T07:21:03.580Z,99.99
2018-11-27T07:22:03.510Z,99.99
2018-11-27T07:23:03.484Z,99.99
2018-11-27T07:24:03.427Z,99.99
2018-11-27T07:25:03.367Z,99.99
2018-11-27T07:26:03.374Z,99.99
2018-11-27T07:27:03.309Z,99.99
2018-11-27T07:28:03.264Z,99.99
2018-11-27T07:29:03.203Z,99.99
2018-11-27T07:30:03.146Z,99.99
2018-11-27T07:31:03.137Z,99.99
2018-11-27T07:32:03.067Z,99.99
2018-11-27T07:33:03.050Z,99.99
2018-11-27T07:34:02.981Z,99.99
2018-11-27T07:35:02.942Z,99.99
2018-11-27T07:36:02.908Z,99.99
2018-11-27T07:37:02.857Z,99.99
2018-11-27T07:38:02.833Z,99.99
2018-11-27T07:39:02.766Z,99.99
2018-11-27T07:40:03.355Z,99.99
2018-11-27T07:41:02.690Z,99.99
2018-11-27T07:42:02.608Z,99.99
2018-11-27T07:43:02.563Z,99.99
2018-11-27T07:44:02.513Z,99.99
2018-11-27T07:45:02.501Z,99.99
2018-11-27T07:46:02.458Z,99.99
2018-11-27T07:47:02.423Z,99.99
2018-11-27T07:48:02.381Z,99.99
2018-11-27T07:49:02.302Z,99.99
2018-11-27T07:50:02.250Z,99.99
2018-11-27T07:51:02.214Z,99.99
2018-11-27T07:52:02.211Z,99.99
2018-11-27T07:53:02.155Z,99.99
2018-11-27T07:54:02.119Z,99.99
2018-11-27T07:55:02.154Z,99.99
2018-11-27T07:56:02.002Z,99.99
2018-11-27T07:57:01.976Z,99.99
2018-11-27T07:58:01.900Z,99.99
2018-11-27T07:59:01.865Z,99.99
2018-11-27T08:00:01.813Z,99.99
2018-11-27T08:01:01.773Z,99.99
2018-11-27T08:02:01.742Z,99.99
2018-11-27T08:03:01.689Z,99.99
2018-11-27T08:04:01.628Z,99.99
2018-11-27T08:05:01.597Z,99.99
2018-11-27T08:06:01.571Z,99.99
2018-11-27T08:07:01.545Z,99.99
2018-11-27T08:08:01.479Z,99.99
2018-11-27T08:09:01.406Z,99.99
2018-11-27T08:10:01.362Z,99.99
2018-11-27T08:11:01.361Z,99.99
2018-11-27T08:12:01.310Z,99.99
2018-11-27T08:13:01.247Z,99.99
2018-11-27T08:14:01.186Z,99.99
2018-11-27T08:15:01.150Z,99.99
2018-11-27T08:16:01.091Z,99.99
2018-11-27T08:17:01.197Z,99.99
2018-11-27T08:18:01.024Z,99.99
2018-11-27T08:19:01.002Z,99.99
2018-11-27T08:20:00.930Z,99.99
2018-11-27T08:21:00.874Z,99.99
2018-11-27T08:22:00.851Z,99.99
2018-11-27T08:23:00.816Z,99.99
2018-11-27T08:24:00.740Z,99.99
2018-11-27T08:25:00.722Z,99.99
2018-11-27T08:26:00.656Z,99.99
2018-11-27T08:27:00.631Z,99.99
2018-11-27T08:28:00.593Z,99.99
2018-11-27T08:29:00.530Z,99.99
2018-11-27T08:30:00.545Z,99.99
2018-11-27T08:31:00.443Z,99.99
2018-11-27T08:32:00.415Z,99.99
2018-11-27T08:33:00.400Z,99.99
2018-11-27T08:34:00.333Z,99.99
2018-11-27T08:35:00.253Z,99.99
2018-11-27T08:36:00.229Z,99.99
2018-11-27T08:37:00.184Z,99.99
2018-11-27T08:38:00.163Z,99.99
2018-11-27T08:39:00.128Z,99.99
2018-11-27T08:40:00.051Z,99.99
2018-11-27T08:41:00.015Z,99.99
2018-11-27T08:41:59.961Z,99.99
2018-11-27T08:42:59.919Z,99.99
2018-11-27T08:43:59.911Z,99.99
2018-11-27T08:44:59.809Z,99.99
2018-11-27T08:45:59.775Z,99.99
2018-11-27T08:46:59.723Z,99.99
2018-11-27T08:47:59.679Z,99.99
2018-11-27T08:48:59.672Z,99.99
2018-11-27T08:49:59.626Z,99.99
2018-11-27T08:50:59.583Z,99.99
2018-11-27T08:51:59.530Z,99.99
2018-11-27T08:52:59.467Z,99.99
2018-11-27T08:53:59.421Z,99.99
2018-11-27T08:54:59.394Z,99.99
2018-11-27T08:55:59.359Z,99.99
2018-11-27T08:56:59.333Z,99.99
2018-11-27T08:57:59.264Z,99.99
2018-11-27T08:58:59.207Z,99.99
2018-11-27T08:59:59.175Z,99.99
2018-11-27T09:00:59.115Z,99.99
2018-11-27T09:01:59.100Z,99.99
2018-11-27T09:02:59.027Z,99.99
2018-11-27T09:03:59.095Z,99.99
2018-11-27T09:04:58.970Z,99.99
2018-11-27T09:05:58.900Z,99.99
2018-11-27T09:06:58.841Z,99.99
2018-11-27T09:07:58.814Z,99.99
2018-11-27T09:08:58.807Z,99.99
2018-11-27T09:09:58.719Z,99.99
2018-11-27T09:10:58.696Z,99.99
2018-11-27T09:11:58.647Z,99.99
2018-11-27T09:12:58.772Z,99.99
2018-11-27T09:13:58.551Z,99.99
2018-11-27T09:14:58.543Z,99.99
2018-11-27T09:15:58.550Z,99.99
2018-11-27T09:16:58.449Z,99.99
2018-11-27T09:17:58.395Z,99.99
2018-11-27T09:18:58.347Z,99.99
2018-11-27T09:19:58.286Z,99.99
2018-11-27T09:20:58.344Z,99.99
2018-11-27T09:21:58.286Z,99.99
2018-11-27T09:22:58.198Z,99.99
2018-11-27T09:23:58.140Z,99.99
2018-11-27T09:24:58.088Z,99.99
2018-11-27T09:25:58.082Z,99.99
2018-11-27T09:26:57.981Z,99.99
2018-11-27T09:27:57.963Z,99.99
2018-11-27T09:28:57.912Z,99.99
2018-11-27T09:29:57.863Z,99.99
2018-11-27T09:30:57.833Z,99.99
2018-11-27T09:31:57.838Z,99.99
2018-11-27T09:32:57.739Z,99.99
2018-11-27T09:33:57.685Z,99.99
2018-11-27T09:34:57.676Z,99.99
2018-11-27T09:35:57.605Z,99.99
2018-11-27T09:36:57.581Z,99.99
2018-11-27T09:37:57.515Z,99.99
2018-11-27T09:38:57.489Z,99.99
2018-11-27T09:39:57.486Z,99.99
2018-11-27T09:40:57.383Z,99.99
2018-11-27T09:41:57.366Z,99.99
2018-11-27T09:42:57.313Z,99.99
2018-11-27T09:43:57.270Z,99.99
2018-11-27T09:44:57.207Z,99.99
2018-11-27T09:45:57.188Z,99.99
2018-11-27T09:46:57.154Z,99.99
2018-11-27T09:47:57.088Z,99.99
2018-11-27T09:48:57.038Z,99.99
2018-11-27T09:49:56.995Z,99.99
2018-11-27T09:50:56.972Z,99.99
2018-11-27T09:51:56.935Z,99.99
2018-11-27T09:52:56.900Z,99.99
2018-11-27T09:53:56.904Z,99.99
2018-11-27T09:54:56.847Z,99.99
2018-11-27T09:55:56.756Z,99.99
2018-11-27T09:56:56.683Z,99.99
2018-11-27T09:57:59.053Z,99.99
2018-11-27T09:58:56.602Z,99.99
2018-11-27T09:59:56.542Z,99.99
2018-11-27T10:00:56.546Z,99.99
2018-11-27T10:01:56.461Z,99.99
2018-11-27T10:02:56.463Z,99.99
2018-11-27T10:03:56.384Z,99.99
2018-11-27T10:04:56.351Z,99.99
2018-11-27T10:05:56.526Z,99.99
2018-11-27T10:06:56.271Z,99.99
2018-11-27T10:07:56.268Z,99.99
2018-11-27T10:08:56.196Z,99.99
2018-11-27T10:09:56.122Z,99.99
2018-11-27T10:10:56.086Z,99.99
2018-11-27T10:11:56.032Z,99.97
2018-11-27T10:12:55.993Z,99.77
2018-11-27T10:13:56.001Z,99.58
2018-11-27T10:14:55.925Z,99.02
2018-11-27T10:15:55.894Z,98.02
2018-11-27T10:16:55.816Z,97.88
2018-11-27T10:17:55.778Z,97.60
2018-11-27T10:18:55.766Z,97.74
2018-11-27T10:19:55.704Z,97.22
2018-11-27T10:20:55.658Z,97.74
2018-11-27T10:21:55.606Z,97.55
2018-11-27T10:22:55.567Z,97.36
2018-11-27T10:23:55.548Z,96.88
2018-11-27T10:24:55.481Z,96.22
2018-11-27T10:25:55.448Z,96.50
2018-11-27T10:26:55.396Z,96.98
2018-11-27T10:27:55.365Z,97.12
2018-11-27T10:28:55.345Z,95.51
2018-11-27T10:29:55.272Z,93.56
2018-11-27T10:30:55.227Z,93.32
2018-11-27T10:31:55.185Z,94.27
2018-11-27T10:32:55.158Z,94.37
2018-11-27T10:33:55.103Z,94.18
2018-11-27T10:34:55.089Z,93.60
2018-11-27T10:35:55.025Z,93.79
2018-11-27T10:36:54.988Z,94.37
2018-11-27T10:37:54.927Z,93.79
2018-11-27T10:38:54.898Z,93.99
2018-11-27T10:39:54.901Z,93.65
2018-11-27T10:40:54.804Z,94.46
2018-11-27T10:41:54.763Z,94.32
2018-11-27T10:42:54.743Z,93.99
2018-11-27T10:43:54.676Z,93.23
2018-11-27T10:44:54.651Z,92.85
2018-11-27T10:45:54.633Z,93.04
2018-11-27T10:46:54.554Z,93.04
2018-11-27T10:47:54.514Z,92.94
2018-11-27T10:48:54.474Z,93.79
2018-11-27T10:49:54.424Z,93.56
2018-11-27T10:50:54.416Z,93.70
2018-11-27T10:51:54.339Z,93.60
2018-11-27T10:52:54.309Z,93.60
2018-11-27T10:53:54.272Z,93.60
2018-11-27T10:54:54.245Z,93.04
2018-11-27T10:55:54.196Z,92.56
2018-11-27T10:56:54.129Z,92.18
2018-11-27T10:57:54.111Z,91.71
2018-11-27T10:58:54.053Z,92.37
2018-11-27T10:59:54.008Z,92.46
2018-11-27T11:00:53.991Z,92.85
2018-11-27T11:01:53.932Z,92.94
2018-11-27T11:02:53.872Z,93.70
2018-11-27T11:03:53.874Z,93.04
2018-11-27T11:04:53.799Z,92.27
2018-11-27T11:05:53.779Z,91.80
2018-11-27T11:06:53.755Z,90.75
2018-11-27T11:07:53.659Z,90.37
2018-11-27T11:08:53.634Z,90.09
2018-11-27T11:09:53.613Z,91.13
2018-11-27T11:10:53.584Z,91.42
2018-11-27T11:11:53.505Z,91.71
2018-11-27T11:12:53.488Z,92.08
2018-11-27T11:13:53.420Z,91.33
2018-11-27T11:14:53.363Z,90.75
2018-11-27T11:15:53.330Z,90.47
2018-11-27T11:16:53.320Z,91.04
2018-11-27T11:17:53.254Z,91.61
2018-11-27T11:18:53.213Z,91.71
2018-11-27T11:19:53.166Z,91.13
2018-11-27T11:20:53.112Z,91.04
2018-11-27T11:21:53.105Z,91.52
2018-11-27T11:22:53.048Z,92.56
2018-11-27T11:23:53.006Z,91.80
2018-11-27T11:24:52.973Z,91.85
2018-11-27T11:25:52.909Z,91.52
2018-11-27T11:26:52.884Z,91.09
2018-11-27T11:27:52.854Z,91.56
2018-11-27T11:28:52.797Z,91.47
2018-11-27T11:29:52.759Z,90.80
2018-11-27T11:30:52.717Z,91.38
2018-11-27T11:31:52.700Z,91.52
2018-11-27T11:32:52.639Z,91.80
2018-11-27T11:33:52.576Z,90.42
2018-11-27T11:34:52.538Z,91.28
2018-11-27T11:35:52.494Z,90.99
2018-11-27T11:36:52.453Z,91.19
2018-11-27T11:37:52.453Z,91.56
2018-11-27T11:38:52.367Z,92.23
2018-11-27T11:39:52.327Z,91.66
2018-11-27T11:40:52.300Z,91.75
2018-11-27T11:41:52.256Z,92.04
2018-11-27T11:42:52.230Z,91.66
2018-11-27T11:43:52.185Z,92.23
2018-11-27T11:44:52.118Z,92.61
2018-11-27T11:45:52.077Z,93.18
2018-11-27T11:46:52.022Z,91.94
2018-11-27T11:47:52.009Z,92.23
2018-11-27T11:48:51.953Z,92.13
2018-11-27T11:49:51.917Z,92.32
2018-11-27T11:50:51.899Z,92.04
2018-11-27T11:51:51.898Z,92.13
2018-11-27T11:52:51.762Z,91.75
2018-11-27T11:53:51.722Z,91.85
2018-11-27T11:54:51.696Z,91.28
2018-11-27T11:55:51.670Z,91.66
2018-11-27T11:56:51.603Z,92.13
2018-11-27T11:57:51.597Z,92.04
2018-11-27T11:58:51.526Z,92.32
2018-11-27T11:59:51.485Z,92.90
2018-11-27T12:00:51.448Z,93.18
2018-11-27T12:01:51.401Z,92.71
2018-11-27T12:02:51.346Z,92.61
2018-11-27T12:03:51.345Z,92.23
2018-11-27T12:04:51.263Z,92.42
2018-11-27T12:05:51.250Z,92.04
2018-11-27T12:06:51.183Z,91.94
2018-11-27T12:07:51.170Z,91.47
2018-11-27T12:08:51.105Z,91.19
2018-11-27T12:09:51.052Z,91.56
2018-11-27T12:10:51.036Z,91.56
2018-11-27T12:11:50.964Z,91.66
2018-11-27T12:12:50.951Z,92.42
2018-11-27T12:13:50.887Z,91.66
2018-11-27T12:14:50.852Z,91.47
2018-11-27T12:15:50.821Z,91.47
2018-11-27T12:16:50.757Z,91.09
2018-11-27T12:17:50.725Z,91.09
2018-11-27T12:18:50.680Z,91.09
2018-11-27T12:19:50.645Z,91.38
2018-11-27T12:20:50.584Z,91.47
2018-11-27T12:21:50.571Z,90.71
2018-11-27T12:22:50.519Z,90.71
2018-11-27T12:23:50.487Z,91.19
2018-11-27T12:24:50.403Z,90.90
2018-11-27T12:25:50.376Z,91.47
2018-11-27T12:26:50.340Z,91.28
2018-11-27T12:27:50.303Z,90.99
2018-11-27T12:28:50.260Z,91.28
2018-11-27T12:29:50.189Z,91.47
2018-11-27T12:30:50.150Z,90.99
2018-11-27T12:31:50.132Z,91.47
2018-11-27T12:32:50.072Z,91.47
2018-11-27T12:33:50.034Z,91.56
2018-11-27T12:34:49.996Z,91.66
2018-11-27T12:35:49.969Z,91.19
2018-11-27T12:36:49.902Z,91.85
2018-11-27T12:37:49.873Z,91.56
2018-11-27T12:38:49.825Z,92.32
2018-11-27T12:39:49.771Z,92.04
2018-11-27T12:40:49.735Z,91.85
2018-11-27T12:41:49.703Z,91.47
2018-11-27T12:42:49.673Z,92.42
2018-11-27T12:43:49.597Z,91.75
2018-11-27T12:44:49.566Z,91.23
2018-11-27T12:45:49.533Z,90.33
2018-11-27T12:46:49.471Z,90.80
2018-11-27T12:47:49.435Z,90.23
2018-11-27T12:48:49.427Z,90.05
2018-11-27T12:49:49.346Z,90.71
2018-11-27T12:50:49.299Z,90.61
2018-11-27T12:51:49.256Z,91.28